Maple Heights, Ohio
Current Conditions -  °F | °C
As of 2:53 PM on Saturday 25 Oct 2014 (Local Time) from KBKL Reporting Station
Clear Clear  
Wind Chill: 61°   Ceiling: Unl
Heat Index: 61°   Visibility: 10mi
Dew Point: 55°   Wind: 16mph
Humidity: 81%   Direction: 280°W
Pressure: 29.77"   Gusts: NA
Location:  41.41°N, 81.56°W
Report Text: KBKL 251853Z 28014KT 10SM CLR 16/13 A2977 RMK AO2 SLP080 T01610128
Loading
Personal Weather Stations






























Interactive Weather Map New forecast layout! Learn more

10-Day Weather Forecast

Advertisements
Track Severe Weather on mobile